sensor_id;sensor_type;location;lat;lon;timestamp;P1;durP1;ratioP1;P2;durP2;ratioP2
9789;SDS011;4934;50.852;8.098;2023-04-01T00:00:58;6.38;;;1.00;;
9789;SDS011;4934;50.852;8.098;2023-04-01T00:03:25;8.68;;;2.35;;
9789;SDS011;4934;50.852;8.098;2023-04-01T00:05:52;5.50;;;0.88;;
9789;SDS011;4934;50.852;8.098;2023-04-01T00:08:22;2.08;;;0.95;;
9789;SDS011;4934;50.852;8.098;2023-04-01T00:10:48;3.53;;;0.85;;
9789;SDS011;4934;50.852;8.098;2023-04-01T00:13:13;6.15;;;1.23;;
9789;SDS011;4934;50.852;8.098;2023-04-01T00:15:40;7.10;;;1.23;;
9789;SDS011;4934;50.852;8.098;2023-04-01T00:18:05;8.15;;;1.45;;
9789;SDS011;4934;50.852;8.098;2023-04-01T00:20:31;2.90;;;0.63;;
9789;SDS011;4934;50.852;8.098;2023-04-01T00:22:57;6.20;;;1.08;;
9789;SDS011;4934;50.852;8.098;2023-04-01T00:25:22;4.38;;;0.90;;
9789;SDS011;4934;50.852;8.098;2023-04-01T00:27:48;3.05;;;0.75;;
9789;SDS011;4934;50.852;8.098;2023-04-01T00:30:18;7.15;;;0.80;;
9789;SDS011;4934;50.852;8.098;2023-04-01T00:32:43;2.90;;;0.80;;
9789;SDS011;4934;50.852;8.098;2023-04-01T00:35:09;6.60;;;0.68;;
9789;SDS011;4934;50.852;8.098;2023-04-01T00:37:36;2.00;;;0.68;;
9789;SDS011;4934;50.852;8.098;2023-04-01T00:40:03;4.57;;;0.75;;
9789;SDS011;4934;50.852;8.098;2023-04-01T00:42:30;4.93;;;1.10;;
9789;SDS011;4934;50.852;8.098;2023-04-01T00:44:56;2.67;;;0.75;;
9789;SDS011;4934;50.852;8.098;2023-04-01T00:47:22;3.88;;;0.85;;
9789;SDS011;4934;50.852;8.098;2023-04-01T00:52:18;4.32;;;0.80;;
9789;SDS011;4934;50.852;8.098;2023-04-01T00:54:49;11.85;;;1.58;;
9789;SDS011;4934;50.852;8.098;2023-04-01T00:57:23;5.38;;;1.77;;
9789;SDS011;4934;50.852;8.098;2023-04-01T00:59:57;3.00;;;0.95;;
9789;SDS011;4934;50.852;8.098;2023-04-01T01:02:24;2.85;;;0.90;;
9789;SDS011;4934;50.852;8.098;2023-04-01T01:04:50;3.53;;;0.63;;
9789;SDS011;4934;50.852;8.098;2023-04-01T01:21:14;3.88;;;0.75;;
9789;SDS011;4934;50.852;8.098;2023-04-01T01:29:10;2.17;;;0.60;;
9789;SDS011;4934;50.852;8.098;2023-04-01T01:37:10;3.25;;;0.75;;
9789;SDS011;4934;50.852;8.098;2023-04-01T01:39:40;3.63;;;0.65;;
9789;SDS011;4934;50.852;8.098;2023-04-01T01:42:08;2.42;;;0.50;;
9789;SDS011;4934;50.852;8.098;2023-04-01T01:44:38;3.42;;;0.70;;
9789;SDS011;4934;50.852;8.098;2023-04-01T01:47:05;4.18;;;0.63;;
9789;SDS011;4934;50.852;8.098;2023-04-01T01:49:31;2.75;;;0.95;;
9789;SDS011;4934;50.852;8.098;2023-04-01T01:51:58;2.15;;;0.43;;
9789;SDS011;4934;50.852;8.098;2023-04-01T01:54:25;3.42;;;0.50;;
9789;SDS011;4934;50.852;8.098;2023-04-01T01:56:51;4.57;;;0.70;;
9789;SDS011;4934;50.852;8.098;2023-04-01T02:02:47;6.10;;;0.90;;
9789;SDS011;4934;50.852;8.098;2023-04-01T02:05:15;1.95;;;0.63;;
9789;SDS011;4934;50.852;8.098;2023-04-01T02:07:46;3.88;;;0.47;;
9789;SDS011;4934;50.852;8.098;2023-04-01T02:10:20;3.75;;;0.70;;
9789;SDS011;4934;50.852;8.098;2023-04-01T02:12:49;3.45;;;0.80;;
9789;SDS011;4934;50.852;8.098;2023-04-01T02:15:18;1.83;;;0.50;;
9789;SDS011;4934;50.852;8.098;2023-04-01T02:17:46;10.20;;;0.80;;
9789;SDS011;4934;50.852;8.098;2023-04-01T02:20:18;3.20;;;0.80;;
9789;SDS011;4934;50.852;8.098;2023-04-01T02:22:48;2.97;;;0.55;;
9789;SDS011;4934;50.852;8.098;2023-04-01T02:25:18;2.90;;;0.52;;
9789;SDS011;4934;50.852;8.098;2023-04-01T02:27:48;2.30;;;0.65;;
9789;SDS011;4934;50.852;8.098;2023-04-01T02:30:15;5.78;;;0.70;;
9789;SDS011;4934;50.852;8.098;2023-04-01T02:32:42;4.15;;;0.70;;
9789;SDS011;4934;50.852;8.098;2023-04-01T02:35:11;6.07;;;0.80;;
9789;SDS011;4934;50.852;8.098;2023-04-01T02:37:39;1.85;;;0.40;;
9789;SDS011;4934;50.852;8.098;2023-04-01T02:40:07;2.63;;;0.55;;
9789;SDS011;4934;50.852;8.098;2023-04-01T02:42:35;3.55;;;0.77;;
9789;SDS011;4934;50.852;8.098;2023-04-01T02:45:01;3.65;;;0.70;;
9789;SDS011;4934;50.852;8.098;2023-04-01T02:47:28;5.80;;;0.95;;
9789;SDS011;4934;50.852;8.098;2023-04-01T02:49:54;5.95;;;1.83;;
9789;SDS011;4934;50.852;8.098;2023-04-01T02:52:27;4.13;;;1.10;;
9789;SDS011;4934;50.852;8.098;2023-04-01T02:54:54;3.38;;;0.73;;
9789;SDS011;4934;50.852;8.098;2023-04-01T02:57:20;2.85;;;0.47;;
9789;SDS011;4934;50.852;8.098;2023-04-01T02:59:47;5.25;;;0.60;;
9789;SDS011;4934;50.852;8.098;2023-04-01T03:02:12;3.47;;;0.80;;
9789;SDS011;4934;50.852;8.098;2023-04-01T03:04:38;4.15;;;0.70;;
9789;SDS011;4934;50.852;8.098;2023-04-01T03:07:04;2.75;;;0.63;;
9789;SDS011;4934;50.852;8.098;2023-04-01T03:09:30;2.83;;;1.33;;
9789;SDS011;4934;50.852;8.098;2023-04-01T03:12:05;6.32;;;1.13;;
9789;SDS011;4934;50.852;8.098;2023-04-01T03:14:31;2.47;;;0.60;;
9789;SDS011;4934;50.852;8.098;2023-04-01T03:16:56;3.65;;;0.65;;
9789;SDS011;4934;50.852;8.098;2023-04-01T03:19:22;1.02;;;0.43;;
9789;SDS011;4934;50.852;8.098;2023-04-01T03:21:48;1.67;;;0.95;;
9789;SDS011;4934;50.852;8.098;2023-04-01T03:24:13;3.75;;;0.65;;
9789;SDS011;4934;50.852;8.098;2023-04-01T03:26:39;1.85;;;0.70;;
9789;SDS011;4934;50.852;8.098;2023-04-01T03:29:04;2.80;;;0.63;;
9789;SDS011;4934;50.852;8.098;2023-04-01T03:31:30;3.10;;;0.65;;
9789;SDS011;4934;50.852;8.098;2023-04-01T03:33:56;5.50;;;0.55;;
9789;SDS011;4934;50.852;8.098;2023-04-01T03:36:22;2.08;;;0.47;;
9789;SDS011;4934;50.852;8.098;2023-04-01T03:38:47;5.50;;;0.60;;
9789;SDS011;4934;50.852;8.098;2023-04-01T03:41:14;3.83;;;0.80;;
9789;SDS011;4934;50.852;8.098;2023-04-01T03:43:41;7.05;;;1.02;;
9789;SDS011;4934;50.852;8.098;2023-04-01T03:46:07;1.45;;;0.57;;
9789;SDS011;4934;50.852;8.098;2023-04-01T03:48:33;3.50;;;0.50;;
9789;SDS011;4934;50.852;8.098;2023-04-01T03:50:58;4.10;;;0.60;;
9789;SDS011;4934;50.852;8.098;2023-04-01T03:53:24;2.00;;;0.70;;
9789;SDS011;4934;50.852;8.098;2023-04-01T03:55:50;2.63;;;0.75;;
9789;SDS011;4934;50.852;8.098;2023-04-01T03:58:18;2.17;;;0.45;;
9789;SDS011;4934;50.852;8.098;2023-04-01T04:00:44;1.92;;;0.45;;
9789;SDS011;4934;50.852;8.098;2023-04-01T04:03:10;2.40;;;0.75;;
9789;SDS011;4934;50.852;8.098;2023-04-01T04:05:36;1.38;;;0.65;;
9789;SDS011;4934;50.852;8.098;2023-04-01T04:08:02;3.20;;;0.60;;
9789;SDS011;4934;50.852;8.098;2023-04-01T04:10:29;4.22;;;0.38;;
9789;SDS011;4934;50.852;8.098;2023-04-01T04:12:55;3.72;;;0.47;;
9789;SDS011;4934;50.852;8.098;2023-04-01T04:15:20;1.95;;;0.50;;
9789;SDS011;4934;50.852;8.098;2023-04-01T04:17:46;1.88;;;0.35;;
9789;SDS011;4934;50.852;8.098;2023-04-01T04:20:13;1.73;;;0.30;;
9789;SDS011;4934;50.852;8.098;2023-04-01T04:22:39;0.93;;;0.50;;
9789;SDS011;4934;50.852;8.098;2023-04-01T04:25:05;6.35;;;1.52;;
9789;SDS011;4934;50.852;8.098;2023-04-01T04:27:31;0.95;;;0.45;;
9789;SDS011;4934;50.852;8.098;2023-04-01T04:29:57;1.65;;;0.40;;
9789;SDS011;4934;50.852;8.098;2023-04-01T04:32:23;4.90;;;0.90;;
9789;SDS011;4934;50.852;8.098;2023-04-01T04:34:48;0.85;;;0.30;;
9789;SDS011;4934;50.852;8.098;2023-04-01T04:37:14;1.08;;;0.75;;
9789;SDS011;4934;50.852;8.098;2023-04-01T04:39:39;1.17;;;0.40;;
9789;SDS011;4934;50.852;8.098;2023-04-01T04:42:05;0.73;;;0.30;;
9789;SDS011;4934;50.852;8.098;2023-04-01T04:44:31;2.90;;;0.63;;
9789;SDS011;4934;50.852;8.098;2023-04-01T04:46:58;2.35;;;0.50;;
9789;SDS011;4934;50.852;8.098;2023-04-01T04:49:24;2.10;;;0.40;;
9789;SDS011;4934;50.852;8.098;2023-04-01T04:51:50;2.72;;;0.50;;
9789;SDS011;4934;50.852;8.098;2023-04-01T04:54:17;1.85;;;0.40;;
9789;SDS011;4934;50.852;8.098;2023-04-01T04:56:44;2.00;;;0.50;;
9789;SDS011;4934;50.852;8.098;2023-04-01T04:59:10;2.45;;;0.50;;
9789;SDS011;4934;50.852;8.098;2023-04-01T05:01:37;1.42;;;0.50;;
9789;SDS011;4934;50.852;8.098;2023-04-01T05:04:04;1.88;;;0.65;;
9789;SDS011;4934;50.852;8.098;2023-04-01T05:06:30;1.55;;;0.50;;
9789;SDS011;4934;50.852;8.098;2023-04-01T05:08:56;1.08;;;0.50;;
9789;SDS011;4934;50.852;8.098;2023-04-01T05:11:22;1.48;;;0.40;;
9789;SDS011;4934;50.852;8.098;2023-04-01T05:13:48;1.60;;;0.70;;
9789;SDS011;4934;50.852;8.098;2023-04-01T05:16:17;1.95;;;0.50;;
9789;SDS011;4934;50.852;8.098;2023-04-01T05:18:44;2.40;;;0.40;;
9789;SDS011;4934;50.852;8.098;2023-04-01T05:21:10;4.18;;;0.52;;
9789;SDS011;4934;50.852;8.098;2023-04-01T05:23:37;1.08;;;0.40;;
9789;SDS011;4934;50.852;8.098;2023-04-01T05:26:04;1.38;;;0.40;;
9789;SDS011;4934;50.852;8.098;2023-04-01T05:28:34;2.55;;;0.40;;
9789;SDS011;4934;50.852;8.098;2023-04-01T05:31:00;4.13;;;0.32;;
9789;SDS011;4934;50.852;8.098;2023-04-01T05:33:27;1.15;;;0.40;;
9789;SDS011;4934;50.852;8.098;2023-04-01T05:35:53;0.50;;;0.30;;
9789;SDS011;4934;50.852;8.098;2023-04-01T05:38:19;3.75;;;1.05;;
9789;SDS011;4934;50.852;8.098;2023-04-01T05:40:45;0.85;;;0.43;;
9789;SDS011;4934;50.852;8.098;2023-04-01T05:43:11;0.95;;;0.40;;
9789;SDS011;4934;50.852;8.098;2023-04-01T05:45:36;0.77;;;0.30;;
9789;SDS011;4934;50.852;8.098;2023-04-01T05:48:02;3.60;;;0.45;;
9789;SDS011;4934;50.852;8.098;2023-04-01T05:50:28;0.73;;;0.40;;
9789;SDS011;4934;50.852;8.098;2023-04-01T05:52:53;1.85;;;0.45;;
9789;SDS011;4934;50.852;8.098;2023-04-01T05:55:19;4.38;;;0.47;;
9789;SDS011;4934;50.852;8.098;2023-04-01T05:57:45;0.50;;;0.40;;
9789;SDS011;4934;50.852;8.098;2023-04-01T06:00:13;1.53;;;0.47;;
9789;SDS011;4934;50.852;8.098;2023-04-01T06:02:39;1.08;;;0.45;;
9789;SDS011;4934;50.852;8.098;2023-04-01T06:07:44;0.50;;;0.40;;
9789;SDS011;4934;50.852;8.098;2023-04-01T06:10:12;5.65;;;0.70;;
9789;SDS011;4934;50.852;8.098;2023-04-01T06:12:45;0.77;;;0.40;;
9789;SDS011;4934;50.852;8.098;2023-04-01T06:15:28;5.68;;;0.50;;
9789;SDS011;4934;50.852;8.098;2023-04-01T06:24:00;0.30;;;0.30;;
9789;SDS011;4934;50.852;8.098;2023-04-01T06:48:42;5.15;;;2.13;;
9789;SDS011;4934;50.852;8.098;2023-04-01T06:54:10;0.85;;;0.60;;
9789;SDS011;4934;50.852;8.098;2023-04-01T06:56:45;2.90;;;1.83;;
9789;SDS011;4934;50.852;8.098;2023-04-01T06:59:22;1.85;;;0.68;;
9789;SDS011;4934;50.852;8.098;2023-04-01T07:01:52;0.82;;;0.30;;
9789;SDS011;4934;50.852;8.098;2023-04-01T07:04:35;1.45;;;0.80;;
9789;SDS011;4934;50.852;8.098;2023-04-01T07:07:05;0.82;;;0.30;;
9789;SDS011;4934;50.852;8.098;2023-04-01T07:09:40;0.45;;;0.43;;
9789;SDS011;4934;50.852;8.098;2023-04-01T07:14:52;2.28;;;0.40;;
9789;SDS011;4934;50.852;8.098;2023-04-01T07:17:20;1.60;;;0.40;;
9789;SDS011;4934;50.852;8.098;2023-04-01T07:20:05;0.43;;;0.20;;
9789;SDS011;4934;50.852;8.098;2023-04-01T07:22:42;0.52;;;0.40;;
9789;SDS011;4934;50.852;8.098;2023-04-01T07:25:12;1.13;;;0.52;;
9789;SDS011;4934;50.852;8.098;2023-04-01T07:27:41;2.17;;;0.50;;
9789;SDS011;4934;50.852;8.098;2023-04-01T07:30:13;0.93;;;0.40;;
9789;SDS011;4934;50.852;8.098;2023-04-01T07:32:46;0.65;;;0.35;;
9789;SDS011;4934;50.852;8.098;2023-04-01T07:35:16;0.63;;;0.50;;
9789;SDS011;4934;50.852;8.098;2023-04-01T07:48:58;0.60;;;0.30;;
9789;SDS011;4934;50.852;8.098;2023-04-01T07:57:43;4.97;;;0.50;;
9789;SDS011;4934;50.852;8.098;2023-04-01T08:11:23;1.45;;;0.60;;
9789;SDS011;4934;50.852;8.098;2023-04-01T08:19:47;1.55;;;0.52;;
9789;SDS011;4934;50.852;8.098;2023-04-01T08:22:43;2.15;;;0.50;;
9789;SDS011;4934;50.852;8.098;2023-04-01T08:25:16;1.23;;;0.68;;
9789;SDS011;4934;50.852;8.098;2023-04-01T08:27:53;0.40;;;0.30;;
9789;SDS011;4934;50.852;8.098;2023-04-01T08:30:24;1.30;;;0.50;;
9789;SDS011;4934;50.852;8.098;2023-04-01T08:32:58;1.27;;;0.50;;
9789;SDS011;4934;50.852;8.098;2023-04-01T08:35:29;0.80;;;0.63;;
9789;SDS011;4934;50.852;8.098;2023-04-01T08:38:05;2.38;;;0.60;;
9789;SDS011;4934;50.852;8.098;2023-04-01T08:48:58;1.83;;;1.10;;
9789;SDS011;4934;50.852;8.098;2023-04-01T09:08:52;0.85;;;0.47;;
9789;SDS011;4934;50.852;8.098;2023-04-01T09:17:49;2.00;;;0.30;;
9789;SDS011;4934;50.852;8.098;2023-04-01T09:35:01;0.73;;;0.50;;
9789;SDS011;4934;50.852;8.098;2023-04-01T09:45:41;1.33;;;0.45;;
9789;SDS011;4934;50.852;8.098;2023-04-01T09:50:52;1.23;;;0.47;;
9789;SDS011;4934;50.852;8.098;2023-04-01T10:13:36;1.55;;;0.50;;
9789;SDS011;4934;50.852;8.098;2023-04-01T10:21:38;0.65;;;0.40;;
9789;SDS011;4934;50.852;8.098;2023-04-01T10:24:27;0.98;;;0.40;;
9789;SDS011;4934;50.852;8.098;2023-04-01T10:30:32;0.57;;;0.40;;
9789;SDS011;4934;50.852;8.098;2023-04-01T10:33:15;1.38;;;0.95;;
9789;SDS011;4934;50.852;8.098;2023-04-01T10:36:22;5.82;;;0.90;;
9789;SDS011;4934;50.852;8.098;2023-04-01T10:42:11;1.00;;;0.70;;
9789;SDS011;4934;50.852;8.098;2023-04-01T10:45:07;0.50;;;0.50;;
9789;SDS011;4934;50.852;8.098;2023-04-01T10:47:45;1.38;;;0.60;;
9789;SDS011;4934;50.852;8.098;2023-04-01T10:56:19;0.52;;;0.47;;
9789;SDS011;4934;50.852;8.098;2023-04-01T11:07:46;0.63;;;0.60;;
9789;SDS011;4934;50.852;8.098;2023-04-01T11:28:22;1.08;;;0.70;;
9789;SDS011;4934;50.852;8.098;2023-04-01T11:44:21;1.02;;;0.77;;
9789;SDS011;4934;50.852;8.098;2023-04-01T12:03:18;1.05;;;0.85;;
9789;SDS011;4934;50.852;8.098;2023-04-01T12:11:19;1.02;;;0.80;;
9789;SDS011;4934;50.852;8.098;2023-04-01T12:19:59;0.75;;;0.65;;
9789;SDS011;4934;50.852;8.098;2023-04-01T12:23:03;1.13;;;0.90;;
9789;SDS011;4934;50.852;8.098;2023-04-01T12:31:18;2.05;;;1.40;;
9789;SDS011;4934;50.852;8.098;2023-04-01T12:56:33;9.23;;;3.30;;
9789;SDS011;4934;50.852;8.098;2023-04-01T13:07:17;1.73;;;1.45;;
9789;SDS011;4934;50.852;8.098;2023-04-01T13:29:04;2.97;;;2.00;;
9789;SDS011;4934;50.852;8.098;2023-04-01T13:31:55;4.28;;;2.38;;
9789;SDS011;4934;50.852;8.098;2023-04-01T13:34:39;7.63;;;2.70;;
9789;SDS011;4934;50.852;8.098;2023-04-01T13:43:04;7.65;;;4.10;;
9789;SDS011;4934;50.852;8.098;2023-04-01T13:51:13;4.43;;;3.03;;
9789;SDS011;4934;50.852;8.098;2023-04-01T13:53:59;2.08;;;1.70;;
9789;SDS011;4934;50.852;8.098;2023-04-01T14:02:51;3.13;;;1.63;;
9789;SDS011;4934;50.852;8.098;2023-04-01T14:11:04;1.38;;;1.10;;
9789;SDS011;4934;50.852;8.098;2023-04-01T14:13:51;1.20;;;1.08;;
9789;SDS011;4934;50.852;8.098;2023-04-01T14:22:53;2.10;;;1.63;;
9789;SDS011;4934;50.852;8.098;2023-04-01T14:25:33;1.83;;;1.25;;
9789;SDS011;4934;50.852;8.098;2023-04-01T14:28:26;1.42;;;1.10;;
9789;SDS011;4934;50.852;8.098;2023-04-01T14:31:15;6.95;;;2.35;;
9789;SDS011;4934;50.852;8.098;2023-04-01T14:36:53;1.85;;;1.35;;
9789;SDS011;4934;50.852;8.098;2023-04-01T14:50:25;2.42;;;1.83;;
9789;SDS011;4934;50.852;8.098;2023-04-01T14:58:16;2.17;;;1.63;;
9789;SDS011;4934;50.852;8.098;2023-04-01T15:00:58;2.97;;;1.85;;
9789;SDS011;4934;50.852;8.098;2023-04-01T15:03:29;1.50;;;1.20;;
9789;SDS011;4934;50.852;8.098;2023-04-01T15:15:15;2.33;;;1.52;;
9789;SDS011;4934;50.852;8.098;2023-04-01T15:17:50;3.72;;;2.00;;
9789;SDS011;4934;50.852;8.098;2023-04-01T15:25:50;4.30;;;2.85;;
9789;SDS011;4934;50.852;8.098;2023-04-01T15:31:34;2.15;;;1.52;;
9789;SDS011;4934;50.852;8.098;2023-04-01T15:39:55;3.00;;;2.15;;
9789;SDS011;4934;50.852;8.098;2023-04-01T15:45:16;4.28;;;2.50;;
9789;SDS011;4934;50.852;8.098;2023-04-01T15:47:59;6.30;;;3.97;;
9789;SDS011;4934;50.852;8.098;2023-04-01T15:56:16;4.32;;;3.05;;
9789;SDS011;4934;50.852;8.098;2023-04-01T16:06:57;3.53;;;2.70;;
9789;SDS011;4934;50.852;8.098;2023-04-01T16:12:18;5.90;;;2.60;;
9789;SDS011;4934;50.852;8.098;2023-04-01T16:22:37;5.63;;;3.15;;
9789;SDS011;4934;50.852;8.098;2023-04-01T16:25:18;3.03;;;1.83;;
9789;SDS011;4934;50.852;8.098;2023-04-01T16:30:59;4.05;;;2.08;;
9789;SDS011;4934;50.852;8.098;2023-04-01T16:33:55;2.83;;;1.85;;
9789;SDS011;4934;50.852;8.098;2023-04-01T16:44:54;2.42;;;1.80;;
9789;SDS011;4934;50.852;8.098;2023-04-01T16:47:30;6.70;;;2.88;;
9789;SDS011;4934;50.852;8.098;2023-04-01T16:58:37;3.92;;;2.38;;
9789;SDS011;4934;50.852;8.098;2023-04-01T17:01:22;3.90;;;2.55;;
9789;SDS011;4934;50.852;8.098;2023-04-01T17:04:04;3.58;;;2.58;;
9789;SDS011;4934;50.852;8.098;2023-04-01T17:11:46;3.53;;;2.20;;
9789;SDS011;4934;50.852;8.098;2023-04-01T17:17:17;4.55;;;3.08;;
9789;SDS011;4934;50.852;8.098;2023-04-01T17:19:56;6.57;;;3.80;;
9789;SDS011;4934;50.852;8.098;2023-04-01T17:22:41;4.47;;;2.50;;
9789;SDS011;4934;50.852;8.098;2023-04-01T17:26:23;7.10;;;3.20;;
9789;SDS011;4934;50.852;8.098;2023-04-01T17:28:43;4.07;;;3.15;;
9789;SDS011;4934;50.852;8.098;2023-04-01T17:34:05;4.95;;;3.33;;
9789;SDS011;4934;50.852;8.098;2023-04-01T17:36:50;14.80;;;7.20;;
9789;SDS011;4934;50.852;8.098;2023-04-01T17:39:48;7.22;;;3.35;;
9789;SDS011;4934;50.852;8.098;2023-04-01T17:47:21;5.00;;;2.60;;
9789;SDS011;4934;50.852;8.098;2023-04-01T17:52:46;5.60;;;2.95;;
9789;SDS011;4934;50.852;8.098;2023-04-01T17:58:16;5.93;;;3.55;;
9789;SDS011;4934;50.852;8.098;2023-04-01T18:06:34;8.03;;;4.93;;
9789;SDS011;4934;50.852;8.098;2023-04-01T18:09:11;10.35;;;5.22;;
9789;SDS011;4934;50.852;8.098;2023-04-01T18:14:50;6.20;;;3.70;;
9789;SDS011;4934;50.852;8.098;2023-04-01T18:27:38;7.22;;;4.43;;
9789;SDS011;4934;50.852;8.098;2023-04-01T18:30:12;4.90;;;2.85;;
9789;SDS011;4934;50.852;8.098;2023-04-01T18:33:03;6.93;;;3.90;;
9789;SDS011;4934;50.852;8.098;2023-04-01T18:35:47;4.70;;;3.13;;
9789;SDS011;4934;50.852;8.098;2023-04-01T18:38:30;4.87;;;3.30;;
9789;SDS011;4934;50.852;8.098;2023-04-01T18:44:30;3.35;;;2.35;;
9789;SDS011;4934;50.852;8.098;2023-04-01T18:49:33;6.38;;;3.05;;
9789;SDS011;4934;50.852;8.098;2023-04-01T18:57:50;3.78;;;2.58;;
9789;SDS011;4934;50.852;8.098;2023-04-01T19:05:39;4.50;;;3.00;;
9789;SDS011;4934;50.852;8.098;2023-04-01T19:08:13;3.22;;;2.15;;
9789;SDS011;4934;50.852;8.098;2023-04-01T19:19:05;5.40;;;3.30;;
9789;SDS011;4934;50.852;8.098;2023-04-01T19:21:52;4.70;;;3.40;;
9789;SDS011;4934;50.852;8.098;2023-04-01T19:24:31;9.77;;;4.90;;
9789;SDS011;4934;50.852;8.098;2023-04-01T19:35:34;4.68;;;3.08;;
9789;SDS011;4934;50.852;8.098;2023-04-01T19:38:03;5.85;;;3.63;;
9789;SDS011;4934;50.852;8.098;2023-04-01T19:46:07;13.93;;;7.03;;
9789;SDS011;4934;50.852;8.098;2023-04-01T19:49:00;9.27;;;5.50;;
9789;SDS011;4934;50.852;8.098;2023-04-01T19:54:54;4.72;;;2.35;;
9789;SDS011;4934;50.852;8.098;2023-04-01T19:57:38;20.88;;;9.55;;
9789;SDS011;4934;50.852;8.098;2023-04-01T20:00:28;4.45;;;3.10;;
9789;SDS011;4934;50.852;8.098;2023-04-01T20:06:04;4.60;;;2.83;;
9789;SDS011;4934;50.852;8.098;2023-04-01T20:08:47;5.03;;;2.65;;
9789;SDS011;4934;50.852;8.098;2023-04-01T20:14:14;6.68;;;3.42;;
9789;SDS011;4934;50.852;8.098;2023-04-01T20:16:55;5.53;;;3.92;;
9789;SDS011;4934;50.852;8.098;2023-04-01T20:22:08;11.18;;;6.65;;
9789;SDS011;4934;50.852;8.098;2023-04-01T20:24:53;7.45;;;4.95;;
9789;SDS011;4934;50.852;8.098;2023-04-01T20:27:35;2.83;;;2.20;;
9789;SDS011;4934;50.852;8.098;2023-04-01T20:36:20;4.63;;;3.03;;
9789;SDS011;4934;50.852;8.098;2023-04-01T20:44:25;3.13;;;2.35;;
9789;SDS011;4934;50.852;8.098;2023-04-01T20:47:15;2.65;;;2.40;;
9789;SDS011;4934;50.852;8.098;2023-04-01T20:50:19;5.03;;;3.40;;
9789;SDS011;4934;50.852;8.098;2023-04-01T21:01:44;3.92;;;2.53;;
9789;SDS011;4934;50.852;8.098;2023-04-01T21:13:14;7.70;;;3.72;;
9789;SDS011;4934;50.852;8.098;2023-04-01T21:22:11;7.75;;;5.40;;
9789;SDS011;4934;50.852;8.098;2023-04-01T21:36:09;9.60;;;6.32;;
9789;SDS011;4934;50.852;8.098;2023-04-01T21:39:05;7.88;;;5.55;;
9789;SDS011;4934;50.852;8.098;2023-04-01T21:42:03;8.27;;;5.70;;
9789;SDS011;4934;50.852;8.098;2023-04-01T21:56:20;9.23;;;6.30;;
9789;SDS011;4934;50.852;8.098;2023-04-01T22:04:56;13.77;;;7.65;;
9789;SDS011;4934;50.852;8.098;2023-04-01T22:07:37;10.32;;;7.13;;
9789;SDS011;4934;50.852;8.098;2023-04-01T22:13:35;9.88;;;6.50;;
9789;SDS011;4934;50.852;8.098;2023-04-01T22:22:00;8.52;;;5.63;;
9789;SDS011;4934;50.852;8.098;2023-04-01T22:27:28;9.27;;;6.25;;
9789;SDS011;4934;50.852;8.098;2023-04-01T22:30:22;8.77;;;5.20;;
9789;SDS011;4934;50.852;8.098;2023-04-01T22:32:51;9.02;;;5.05;;
9789;SDS011;4934;50.852;8.098;2023-04-01T22:38:31;9.10;;;5.65;;
9789;SDS011;4934;50.852;8.098;2023-04-01T22:41:02;8.98;;;5.32;;
9789;SDS011;4934;50.852;8.098;2023-04-01T22:43:40;10.63;;;4.75;;
9789;SDS011;4934;50.852;8.098;2023-04-01T22:46:31;7.28;;;4.95;;
9789;SDS011;4934;50.852;8.098;2023-04-01T22:51:43;8.10;;;5.95;;
9789;SDS011;4934;50.852;8.098;2023-04-01T22:54:27;9.05;;;5.32;;
9789;SDS011;4934;50.852;8.098;2023-04-01T22:57:00;7.60;;;4.70;;
9789;SDS011;4934;50.852;8.098;2023-04-01T23:02:25;7.60;;;4.82;;
9789;SDS011;4934;50.852;8.098;2023-04-01T23:04:59;6.25;;;4.15;;
9789;SDS011;4934;50.852;8.098;2023-04-01T23:10:02;7.25;;;3.92;;
9789;SDS011;4934;50.852;8.098;2023-04-01T23:12:37;6.88;;;3.50;;
9789;SDS011;4934;50.852;8.098;2023-04-01T23:15:10;6.38;;;4.28;;
9789;SDS011;4934;50.852;8.098;2023-04-01T23:17:41;5.40;;;2.70;;
9789;SDS011;4934;50.852;8.098;2023-04-01T23:20:10;5.15;;;3.30;;
9789;SDS011;4934;50.852;8.098;2023-04-01T23:23:02;5.10;;;3.42;;
9789;SDS011;4934;50.852;8.098;2023-04-01T23:26:25;4.28;;;2.85;;
9789;SDS011;4934;50.852;8.098;2023-04-01T23:28:48;5.53;;;3.15;;
9789;SDS011;4934;50.852;8.098;2023-04-01T23:31:26;4.68;;;2.75;;
9789;SDS011;4934;50.852;8.098;2023-04-01T23:33:58;4.47;;;2.95;;
9789;SDS011;4934;50.852;8.098;2023-04-01T23:36:40;4.18;;;2.83;;
9789;SDS011;4934;50.852;8.098;2023-04-01T23:39:17;4.47;;;2.58;;
9789;SDS011;4934;50.852;8.098;2023-04-01T23:41:46;3.90;;;2.55;;
9789;SDS011;4934;50.852;8.098;2023-04-01T23:44:12;4.18;;;2.90;;
9789;SDS011;4934;50.852;8.098;2023-04-01T23:46:40;5.05;;;3.08;;
9789;SDS011;4934;50.852;8.098;2023-04-01T23:49:11;4.93;;;2.80;;
9789;SDS011;4934;50.852;8.098;2023-04-01T23:51:48;5.38;;;3.60;;
9789;SDS011;4934;50.852;8.098;2023-04-01T23:54:18;5.68;;;2.20;;
9789;SDS011;4934;50.852;8.098;2023-04-01T23:56:48;6.57;;;3.38;;
9789;SDS011;4934;50.852;8.098;2023-04-01T23:59:17;7.82;;;2.95;;
